NCAR-RAP Real-Time Weather Data

Output produced by METARs form (24 July 2017  08:51 UTC)
found at http://weather.rap.ucar.edu/surface/
 
Conditions at: KRSW observed 24 July 2017  07:53 UTC
Temperature: 24.4°C (76°F)
Dewpoint: 23.9°C (75°F) [RH = 97%]
Pressure (altimeter): 30.01 inches Hg (1016.3 mb)
[Sea-level pressure: 1016.1 mb]
Winds: calm
Visibility: 10 or more miles (16+ km)
Ceiling: at least 12,000 feet AGL
Clouds: sky clear below 12,000 feet AGL
Present Weather: automated observation with no human augmentation;
there may or may not be significant weather present at this time
KRSW 240753Z AUTO 00000KT 10SM CLR 24/24 A3001 RMK AO2 SLP161 T02440239

Conditions at: KRSW observed 24 July 2017  06:53 UTC
Temperature: 24.4°C (76°F)
Dewpoint: 23.9°C (75°F) [RH = 97%]
Pressure (altimeter): 30.01 inches Hg (1016.3 mb)
[Sea-level pressure: 1016.1 mb]
Winds: calm
Visibility: 10 or more miles (16+ km)
Ceiling: at least 12,000 feet AGL
Clouds: sky clear below 12,000 feet AGL
Present Weather: automated observation with no human augmentation;
there may or may not be significant weather present at this time
KRSW 240653Z AUTO 00000KT 10SM CLR 24/24 A3001 RMK AO2 SLP161 T02440239

Conditions at: KRSW observed 24 July 2017  05:53 UTC
Temperature: 25.0°C (77°F)
Dewpoint: 23.9°C (75°F) [RH = 94%]
Pressure (altimeter): 30.02 inches Hg (1016.7 mb)
[Sea-level pressure: 1016.3 mb]
Winds: calm
Visibility: 10 or more miles (16+ km)
Ceiling: at least 12,000 feet AGL
Clouds: sky clear below 12,000 feet AGL
Present Weather: automated observation with no human augmentation;
there may or may not be significant weather present at this time
KRSW 240553Z AUTO 00000KT 10SM CLR 25/24 A3002 RMK AO2 SLP163 T02500239 10261 20239 58005

Conditions at: KRSW observed 24 July 2017  04:53 UTC
Temperature: 25.0°C (77°F)
Dewpoint: 23.9°C (75°F) [RH = 94%]
Pressure (altimeter): 30.03 inches Hg (1017.0 mb)
[Sea-level pressure: 1016.7 mb]
Winds: calm
Visibility: 10 or more miles (16+ km)
Ceiling: at least 12,000 feet AGL
Clouds: sky clear below 12,000 feet AGL
Present Weather: automated observation with no human augmentation;
there may or may not be significant weather present at this time
KRSW 240453Z AUTO 00000KT 10SM CLR 25/24 A3003 RMK AO2 SLP167 T02500239 403170239

Conditions at: KRSW observed 24 July 2017  03:53 UTC
Temperature: 25.6°C (78°F)
Dewpoint: 23.9°C (75°F) [RH = 90%]
Pressure (altimeter): 30.05 inches Hg (1017.7 mb)
[Sea-level pressure: 1017.2 mb]
Winds: from the SE (130 degrees) at 3 MPH (3 knots; 1.6 m/s)
Visibility: 10 or more miles (16+ km)
Ceiling: at least 12,000 feet AGL
Clouds: sky clear below 12,000 feet AGL
Present Weather: automated observation with no human augmentation;
there may or may not be significant weather present at this time
KRSW 240353Z AUTO 13003KT 10SM CLR 26/24 A3005 RMK AO2 SLP172 T02560239

Conditions at: KRSW observed 24 July 2017  02:53 UTC
Temperature: 25.6°C (78°F)
Dewpoint: 23.9°C (75°F) [RH = 90%]
Pressure (altimeter): 30.04 inches Hg (1017.4 mb)
[Sea-level pressure: 1016.8 mb]
Winds: from the S (180 degrees) at 7 MPH (6 knots; 3.1 m/s)
Visibility: 10 or more miles (16+ km)
Ceiling: at least 12,000 feet AGL
Clouds: sky clear below 12,000 feet AGL
Present Weather: no significant weather observed at this time
KRSW 240253Z 18006KT 10SM CLR 26/24 A3004 RMK AO2 SLP168 T02560239 53008

Conditions at: KRSW observed 24 July 2017  01:53 UTC
Temperature: 25.0°C (77°F)
Dewpoint: 23.3°C (74°F) [RH = 90%]
Pressure (altimeter): 30.02 inches Hg (1016.7 mb)
[Sea-level pressure: 1016.4 mb]
Winds: from the SE (140 degrees) at 5 MPH (4 knots; 2.1 m/s)
Visibility: 10 or more miles (16+ km)
Ceiling: at least 12,000 feet AGL
Clouds: sky clear below 12,000 feet AGL
Present Weather: no significant weather observed at this time
KRSW 240153Z 14004KT 10SM CLR 25/23 A3002 RMK AO2 SLP164 T02500233

Conditions at: KRSW observed 24 July 2017  00:53 UTC
Temperature: 25.0°C (77°F)
Dewpoint: 22.8°C (73°F) [RH = 88%]
Pressure (altimeter): 30.00 inches Hg (1016.0 mb)
[Sea-level pressure: 1015.5 mb]
Winds: from the SSE (160 degrees) at 5 MPH (4 knots; 2.1 m/s)
Visibility: 10 or more miles (16+ km)
Ceiling: at least 12,000 feet AGL
Clouds: sky clear below 12,000 feet AGL
Present Weather: no significant weather observed at this time
KRSW 240053Z 16004KT 10SM CLR 25/23 A3000 RMK AO2 SLP155 T02500228

Conditions at: KRSW observed 23 July 2017  23:53 UTC
Temperature: 23.9°C (75°F)
Dewpoint: 22.2°C (72°F) [RH = 90%]
Pressure (altimeter): 30.01 inches Hg (1016.3 mb)
[Sea-level pressure: 1016.0 mb]
Winds: from the E (80 degrees) at 9 MPH (8 knots; 4.2 m/s)
Visibility: 4 miles (6 km)
Ceiling: at least 12,000 feet AGL
Clouds: scattered clouds at 4700 feet AGL
scattered clouds at 7000 feet AGL
Present Weather: BR  (mist)
KRSW 232353Z 08008KT 4SM BR SCT047 SCT070 24/22 A3001 RMK AO2 RAE51 SLP160 P0032 60035 T02390222 10317 20239 58000

Conditions at: KRSW observed 23 July 2017  23:25 UTC
Temperature: 23.9°C (75°F)
Dewpoint: 21.7°C (71°F) [RH = 88%]
Pressure (altimeter): 30.02 inches Hg (1016.7 mb)
Winds: from the ESE (110 degrees) at 5 MPH (4 knots; 2.1 m/s)
Visibility: 4 miles (6 km)
Ceiling: 3600 feet AGL
Clouds: few clouds at 2200 feet AGL
broken clouds at 3600 feet AGL
overcast cloud deck at 6000 feet AGL
Present Weather: RA BR  (rain, mist)
KRSW 232325Z 11004KT 4SM RA BR FEW022 BKN036 OVC060 24/22 A3002 RMK AO2 P0024 T02390217

Conditions at: KRSW observed 23 July 2017  23:17 UTC
Temperature: 23.9°C (75°F)
Dewpoint: 21.1°C (70°F) [RH = 84%]
Pressure (altimeter): 30.02 inches Hg (1016.7 mb)
Winds: from the E (80 degrees) at 13 MPH (11 knots; 5.7 m/s)
Visibility: 4 miles (6 km)
Ceiling: 2400 feet AGL
Clouds: broken clouds at 2400 feet AGL
broken clouds at 3300 feet AGL
overcast cloud deck at 5000 feet AGL
Present Weather: +RA  (heavy rain)
KRSW 232317Z 08011KT 4SM +RA BKN024 BKN033 OVC050 24/21 A3002 RMK AO2 P0022 T02390211

Conditions at: KRSW observed 23 July 2017  22:53 UTC
Temperature: 28.3°C (83°F)
Dewpoint: 25.0°C (77°F) [RH = 82%]
Pressure (altimeter): 30.02 inches Hg (1016.7 mb)
[Sea-level pressure: 1016.2 mb]
Winds: from the ENE (70 degrees) at 10 MPH (9 knots; 4.7 m/s)
Visibility: 4 miles (6 km)
Ceiling: 4900 feet AGL
Clouds: few clouds at 3200 feet AGL
broken clouds at 4900 feet AGL
overcast cloud deck at 7500 feet AGL
Present Weather: +RA  (heavy rain)
KRSW 232253Z 07009KT 4SM +RA FEW032 BKN049 OVC075 28/25 A3002 RMK AO2 LTG DSNT NE AND E RAB42 SLP162 P0003 T02830250

Conditions at: KRSW observed 23 July 2017  21:53 UTC
Temperature: 30.0°C (86°F)
Dewpoint: 23.3°C (74°F) [RH = 67%]
Pressure (altimeter): 30.01 inches Hg (1016.3 mb)
[Sea-level pressure: 1016.1 mb]
Winds: from the NNW (340 degrees) at 5 MPH (4 knots; 2.1 m/s)
Visibility: 10 or more miles (16+ km)
Ceiling: 3200 feet AGL
Clouds: broken clouds at 3200 feet AGL
overcast cloud deck at 4400 feet AGL
Present Weather: no significant weather observed at this time
KRSW 232153Z 34004KT 10SM BKN032 OVC044 30/23 A3001 RMK AO2 LTG DSNT E SLP161 T03000233

Conditions at: KRSW observed 23 July 2017  20:53 UTC
Temperature: 31.1°C (88°F)
Dewpoint: 22.8°C (73°F) [RH = 61%]
Pressure (altimeter): 30.01 inches Hg (1016.3 mb)
[Sea-level pressure: 1016.1 mb]
Winds: from the SW (230 degrees) at 6 MPH (5 knots; 2.6 m/s)
Visibility: 10 or more miles (16+ km)
Ceiling: at least 12,000 feet AGL
Clouds: sky clear below 12,000 feet AGL
Present Weather: no significant weather observed at this time
KRSW 232053Z 23005KT 10SM CLR 31/23 A3001 RMK AO2 SLP161 T03110228 56015

Conditions at: KRSW observed 23 July 2017  19:53 UTC
Temperature: 31.1°C (88°F)
Dewpoint: 22.2°C (72°F) [RH = 59%]
Pressure (altimeter): 30.02 inches Hg (1016.7 mb)
[Sea-level pressure: 1016.1 mb]
Winds: from the W (280 degrees) at 7 MPH (6 knots; 3.1 m/s)
Visibility: 10 or more miles (16+ km)
Ceiling: at least 12,000 feet AGL
Clouds: sky clear below 12,000 feet AGL
Present Weather: no significant weather observed at this time
KRSW 231953Z 28006KT 10SM CLR 31/22 A3002 RMK AO2 SLP161 T03110222

Conditions at: KRSW observed 23 July 2017  18:53 UTC
Temperature: 30.6°C (87°F)
Dewpoint: 23.9°C (75°F) [RH = 68%]
Pressure (altimeter): 30.04 inches Hg (1017.4 mb)
[Sea-level pressure: 1017.1 mb]
Winds: from the WNW (300 degrees) at 5 MPH (4 knots; 2.1 m/s)
Visibility: 10 or more miles (16+ km)
Ceiling: at least 12,000 feet AGL
Clouds: few clouds at 3800 feet AGL
Present Weather: no significant weather observed at this time
KRSW 231853Z 30004KT 10SM FEW038 31/24 A3004 RMK AO2 LTG DSNT NW SLP171 T03060239

Conditions at: KRSW observed 23 July 2017  17:53 UTC
Temperature: 30.0°C (86°F)
Dewpoint: 23.3°C (74°F) [RH = 67%]
Pressure (altimeter): 30.06 inches Hg (1018.0 mb)
[Sea-level pressure: 1017.6 mb]
Winds: from the N (350 degrees) at 5 MPH (4 knots; 2.1 m/s)
Visibility: 10 or more miles (16+ km)
Ceiling: at least 12,000 feet AGL
Clouds: sky clear below 12,000 feet AGL
Present Weather: no significant weather observed at this time
KRSW 231753Z 35004KT 10SM CLR 30/23 A3006 RMK AO2 LTG DSNT N SLP176 T03000233 10311 20250 58001

Conditions at: KRSW observed 23 July 2017  16:53 UTC
Temperature: 30.0°C (86°F)
Dewpoint: 22.2°C (72°F) [RH = 63%]
Pressure (altimeter): 30.06 inches Hg (1018.0 mb)
[Sea-level pressure: 1017.7 mb]
Winds: from the SSE (160 degrees) at 12 MPH (10 knots; 5.2 m/s)
Visibility: 10 or more miles (16+ km)
Ceiling: at least 12,000 feet AGL
Clouds: few clouds at 3800 feet AGL
Present Weather: no significant weather observed at this time
KRSW 231653Z 16010KT 10SM FEW038 30/22 A3006 RMK AO2 LTG DSNT N AND NW TSE03 SLP177 T03000222

Conditions at: KRSW observed 23 July 2017  16:37 UTC
Temperature: 30.6°C (87°F)
Dewpoint: 22.2°C (72°F) [RH = 61%]
Pressure (altimeter): 30.05 inches Hg (1017.7 mb)
Winds: from the SSE (150 degrees) at 10 MPH (9 knots; 4.7 m/s)
Visibility: 10 or more miles (16+ km)
Ceiling: 3800 feet AGL
Clouds: broken clouds at 3800 feet AGL
broken clouds at 8000 feet AGL
Present Weather: no significant weather observed at this time
KRSW 231637Z 15009KT 10SM BKN038 BKN080 31/22 A3005 RMK AO2 LTG DSNT N AND NW TSE03 T03060222

Conditions at: KRSW observed 23 July 2017  16:09 UTC
Temperature: 31.1°C (88°F)
Dewpoint: 22.8°C (73°F) [RH = 61%]
Pressure (altimeter): 30.06 inches Hg (1018.0 mb)
Winds: from the SSW (200 degrees) at 6 MPH (5 knots; 2.6 m/s)
Visibility: 10 or more miles (16+ km)
Ceiling: at least 12,000 feet AGL
Clouds: scattered clouds at 3600 feet AGL
scattered clouds at 5500 feet AGL
Present Weather: VCTS  (thunderstorm in vicinity)
KRSW 231609Z 20005KT 10SM VCTS SCT036 SCT055 31/23 A3006 RMK AO2 TSE03 T03110228

Conditions at: KRSW observed 23 July 2017  15:53 UTC
Temperature: 31.1°C (88°F)
Dewpoint: 23.3°C (74°F) [RH = 63%]
Pressure (altimeter): 30.06 inches Hg (1018.0 mb)
[Sea-level pressure: 1017.7 mb]
Winds: from the SW (230 degrees) at 7 MPH (6 knots; 3.1 m/s)
Visibility: 10 or more miles (16+ km)
Ceiling: 5500 feet AGL
Clouds: scattered clouds at 3500 feet AGL
scattered clouds at 4500 feet AGL
broken clouds at 5500 feet AGL
Present Weather: no significant weather observed at this time
KRSW 231553Z 23006KT 10SM SCT035 SCT045 BKN055 31/23 A3006 RMK AO2 LTG DSNT W AND NW SLP177 T03110233

Conditions at: KRSW observed 23 July 2017  14:53 UTC
Temperature: 30.6°C (87°F)
Dewpoint: 23.3°C (74°F) [RH = 65%]
Pressure (altimeter): 30.06 inches Hg (1018.0 mb)
[Sea-level pressure: 1017.7 mb]
Winds: from the SW (230 degrees) at 7 MPH (6 knots; 3.1 m/s)
Visibility: 10 or more miles (16+ km)
Ceiling: at least 12,000 feet AGL
Clouds: sky clear below 12,000 feet AGL
Present Weather: no significant weather observed at this time
KRSW 231453Z 23006KT 10SM CLR 31/23 A3006 RMK AO2 SLP177 T03060233 51007

Conditions at: KRSW observed 23 July 2017  13:53 UTC
Temperature: 29.4°C (85°F)
Dewpoint: 24.4°C (76°F) [RH = 75%]
Pressure (altimeter): 30.06 inches Hg (1018.0 mb)
[Sea-level pressure: 1017.6 mb]
Winds: variable direction winds at 5 MPH (4 knots; 2.1 m/s)
Visibility: 10 or more miles (16+ km)
Ceiling: at least 12,000 feet AGL
Clouds: sky clear below 12,000 feet AGL
Present Weather: no significant weather observed at this time
KRSW 231353Z VRB04KT 10SM CLR 29/24 A3006 RMK AO2 LTG DSNT SW SLP176 T02940244

Conditions at: KRSW observed 23 July 2017  12:53 UTC
Temperature: 27.2°C (81°F)
Dewpoint: 24.4°C (76°F) [RH = 85%]
Pressure (altimeter): 30.05 inches Hg (1017.7 mb)
[Sea-level pressure: 1017.3 mb]
Winds: from the S (170 degrees) at 8 MPH (7 knots; 3.6 m/s)
Visibility: 10 or more miles (16+ km)
Ceiling: at least 12,000 feet AGL
Clouds: sky clear below 12,000 feet AGL
Present Weather: no significant weather observed at this time
KRSW 231253Z 17007KT 10SM CLR 27/24 A3005 RMK AO2 SLP173 T02720244

Conditions at: KRSW observed 23 July 2017  11:53 UTC
Temperature: 25.0°C (77°F)
Dewpoint: 23.9°C (75°F) [RH = 94%]
Pressure (altimeter): 30.04 inches Hg (1017.4 mb)
[Sea-level pressure: 1017.0 mb]
Winds: calm
Visibility: 10 or more miles (16+ km)
Ceiling: at least 12,000 feet AGL
Clouds: sky clear below 12,000 feet AGL
Present Weather: no significant weather observed at this time
KRSW 231153Z 00000KT 10SM CLR 25/24 A3004 RMK AO2 SLP170 70090 T02500239 10250 20244 53008

Conditions at: KRSW observed 23 July 2017  10:53 UTC
Temperature: 24.4°C (76°F)
Dewpoint: 23.3°C (74°F) [RH = 94%]
Pressure (altimeter): 30.03 inches Hg (1017.0 mb)
[Sea-level pressure: 1016.6 mb]
Winds: calm
Visibility: 10 or more miles (16+ km)
Ceiling: at least 12,000 feet AGL
Clouds: sky clear below 12,000 feet AGL
Present Weather: no significant weather observed at this time
KRSW 231053Z 00000KT 10SM CLR 24/23 A3003 RMK AO2 SLP166 T02440233

Conditions at: KRSW observed 23 July 2017  09:53 UTC
Temperature: 24.4°C (76°F)
Dewpoint: 23.3°C (74°F) [RH = 94%]
Pressure (altimeter): 30.02 inches Hg (1016.7 mb)
[Sea-level pressure: 1016.3 mb]
Winds: from the E (80 degrees) at 5 MPH (4 knots; 2.1 m/s)
Visibility: 10 or more miles (16+ km)
Ceiling: at least 12,000 feet AGL
Clouds: sky clear below 12,000 feet AGL
Present Weather: no significant weather observed at this time
KRSW 230953Z 08004KT 10SM CLR 24/23 A3002 RMK AO2 SLP163 T02440233

Conditions at: KRSW observed 23 July 2017  08:53 UTC
Temperature: 24.4°C (76°F)
Dewpoint: 23.3°C (74°F) [RH = 94%]
Pressure (altimeter): 30.02 inches Hg (1016.7 mb)
[Sea-level pressure: 1016.1 mb]
Winds: calm
Visibility: 10 or more miles (16+ km)
Ceiling: at least 12,000 feet AGL
Clouds: sky clear below 12,000 feet AGL
Present Weather: automated observation with no human augmentation;
there may or may not be significant weather present at this time
KRSW 230853Z AUTO 00000KT 10SM CLR 24/23 A3002 RMK AO2 SLP161 T02440233 58012

Conditions at: KRSW observed 23 July 2017  07:53 UTC
Temperature: 24.4°C (76°F)
Dewpoint: 23.3°C (74°F) [RH = 94%]
Pressure (altimeter): 30.03 inches Hg (1017.0 mb)
[Sea-level pressure: 1016.5 mb]
Winds: calm
Visibility: 10 or more miles (16+ km)
Ceiling: at least 12,000 feet AGL
Clouds: sky clear below 12,000 feet AGL
Present Weather: automated observation with no human augmentation;
there may or may not be significant weather present at this time
KRSW 230753Z AUTO 00000KT 10SM CLR 24/23 A3003 RMK AO2 SLP165 T02440233

Conditions at: KRSW observed 23 July 2017  06:53 UTC
Temperature: 25.0°C (77°F)
Dewpoint: 23.3°C (74°F) [RH = 90%]
Pressure (altimeter): 30.04 inches Hg (1017.4 mb)
[Sea-level pressure: 1017.0 mb]
Winds: calm
Visibility: 10 or more miles (16+ km)
Ceiling: at least 12,000 feet AGL
Clouds: few clouds at 3400 feet AGL
Present Weather: automated observation with no human augmentation;
there may or may not be significant weather present at this time
KRSW 230653Z AUTO 00000KT 10SM FEW034 25/23 A3004 RMK AO2 SLP170 T02500233

Conditions at: KRSW observed 23 July 2017  05:53 UTC
Temperature: 25.0°C (77°F)
Dewpoint: 23.3°C (74°F) [RH = 90%]
Pressure (altimeter): 30.05 inches Hg (1017.7 mb)
[Sea-level pressure: 1017.3 mb]
Winds: from the ESE (120 degrees) at 3 MPH (3 knots; 1.6 m/s)
Visibility: 10 or more miles (16+ km)
Ceiling: at least 12,000 feet AGL
Clouds: sky clear below 12,000 feet AGL
Present Weather: automated observation with no human augmentation;
there may or may not be significant weather present at this time
KRSW 230553Z AUTO 12003KT 10SM CLR 25/23 A3005 RMK AO2 SLP173 T02500233 10272 20250 58004

Conditions at: KRSW observed 23 July 2017  04:53 UTC
Temperature: 25.6°C (78°F)
Dewpoint: 23.9°C (75°F) [RH = 90%]
Pressure (altimeter): 30.06 inches Hg (1018.0 mb)
[Sea-level pressure: 1017.6 mb]
Winds: calm
Visibility: 10 or more miles (16+ km)
Ceiling: at least 12,000 feet AGL
Clouds: sky clear below 12,000 feet AGL
Present Weather: automated observation with no human augmentation;
there may or may not be significant weather present at this time
KRSW 230453Z AUTO 00000KT 10SM CLR 26/24 A3006 RMK AO2 SLP176 T02560239 403170233

Conditions at: KRSW observed 23 July 2017  03:53 UTC
Temperature: 25.6°C (78°F)
Dewpoint: 23.9°C (75°F) [RH = 90%]
Pressure (altimeter): 30.06 inches Hg (1018.0 mb)
[Sea-level pressure: 1017.6 mb]
Winds: from the ESE (120 degrees) at 3 MPH (3 knots; 1.6 m/s)
Visibility: 10 or more miles (16+ km)
Ceiling: at least 12,000 feet AGL
Clouds: sky clear below 12,000 feet AGL
Present Weather: no significant weather observed at this time
KRSW 230353Z 12003KT 10SM CLR 26/24 A3006 RMK AO2 SLP176 T02560239

Conditions at: KRSW observed 23 July 2017  02:53 UTC
Temperature: 25.6°C (78°F)
Dewpoint: 24.4°C (76°F) [RH = 93%]
Pressure (altimeter): 30.06 inches Hg (1018.0 mb)
[Sea-level pressure: 1017.7 mb]
Winds: from the E (90 degrees) at 5 MPH (4 knots; 2.1 m/s)
Visibility: 10 or more miles (16+ km)
Ceiling: at least 12,000 feet AGL
Clouds: sky clear below 12,000 feet AGL
Present Weather: no significant weather observed at this time
KRSW 230253Z 09004KT 10SM CLR 26/24 A3006 RMK AO2 SLP177 T02560244 53003

Conditions at: KRSW observed 23 July 2017  01:53 UTC
Temperature: 26.1°C (79°F)
Dewpoint: 24.4°C (76°F) [RH = 90%]
Pressure (altimeter): 30.05 inches Hg (1017.7 mb)
[Sea-level pressure: 1017.4 mb]
Winds: from the E (100 degrees) at 3 MPH (3 knots; 1.6 m/s)
Visibility: 10 or more miles (16+ km)
Ceiling: at least 12,000 feet AGL
Clouds: sky clear below 12,000 feet AGL
Present Weather: automated observation with no human augmentation;
there may or may not be significant weather present at this time
KRSW 230153Z AUTO 10003KT 10SM CLR 26/24 A3005 RMK AO2 SLP174 T02610244

Conditions at: KRSW observed 23 July 2017  00:53 UTC
Temperature: 26.7°C (80°F)
Dewpoint: 24.4°C (76°F) [RH = 87%]
Pressure (altimeter): 30.06 inches Hg (1018.0 mb)
[Sea-level pressure: 1017.6 mb]
Winds: from the SSE (150 degrees) at 3 MPH (3 knots; 1.6 m/s)
Visibility: 10 or more miles (16+ km)
Ceiling: at least 12,000 feet AGL
Clouds: sky clear below 12,000 feet AGL
Present Weather: automated observation with no human augmentation;
there may or may not be significant weather present at this time
KRSW 230053Z AUTO 15003KT 10SM CLR 27/24 A3006 RMK AO2 SLP176 T02670244

Conditions at: KRSW observed 22 July 2017  23:53 UTC
Temperature: 27.8°C (82°F)
Dewpoint: 23.9°C (75°F) [RH = 79%]
Pressure (altimeter): 30.05 inches Hg (1017.7 mb)
[Sea-level pressure: 1017.4 mb]
Winds: calm
Visibility: 10 or more miles (16+ km)
Ceiling: at least 12,000 feet AGL
Clouds: sky clear below 12,000 feet AGL
Present Weather: automated observation with no human augmentation;
there may or may not be significant weather present at this time
KRSW 222353Z AUTO 00000KT 10SM CLR 28/24 A3005 RMK AO2 SLP174 60004 T02780239 10283 20244 53001

Conditions at: KRSW observed 22 July 2017  22:53 UTC
Temperature: 27.8°C (82°F)
Dewpoint: 23.3°C (74°F) [RH = 77%]
Pressure (altimeter): 30.05 inches Hg (1017.7 mb)
[Sea-level pressure: 1017.3 mb]
Winds: from the E (100 degrees) at 5 MPH (4 knots; 2.1 m/s)
Visibility: 10 or more miles (16+ km)
Ceiling: at least 12,000 feet AGL
Clouds: sky clear below 12,000 feet AGL
Present Weather: automated observation with no human augmentation;
there may or may not be significant weather present at this time
KRSW 222253Z AUTO 10004KT 10SM CLR 28/23 A3005 RMK AO2 SLP173 T02780233

Conditions at: KRSW observed 22 July 2017  21:53 UTC
Temperature: 28.3°C (83°F)
Dewpoint: 23.3°C (74°F) [RH = 74%]
Pressure (altimeter): 30.05 inches Hg (1017.7 mb)
[Sea-level pressure: 1017.3 mb]
Winds: from the E (80 degrees) at 5 MPH (4 knots; 2.1 m/s)
Visibility: 10 or more miles (16+ km)
Ceiling: at least 12,000 feet AGL
Clouds: sky clear below 12,000 feet AGL
Present Weather: automated observation with no human augmentation;
there may or may not be significant weather present at this time
KRSW 222153Z AUTO 08004KT 10SM CLR 28/23 A3005 RMK AO2 SLP173 T02830233

Conditions at: KRSW observed 22 July 2017  20:53 UTC
Temperature: 27.8°C (82°F)
Dewpoint: 23.3°C (74°F) [RH = 77%]
Pressure (altimeter): 30.05 inches Hg (1017.7 mb)
[Sea-level pressure: 1017.3 mb]
Winds: from the N (350 degrees) at 5 MPH (4 knots; 2.1 m/s)
Visibility: 10 or more miles (16+ km)
Ceiling: at least 12,000 feet AGL
Clouds: sky clear below 12,000 feet AGL
Present Weather: no significant weather observed at this time
KRSW 222053Z 35004KT 10SM CLR 28/23 A3005 RMK AO2 SLP173 60004 T02780233 56019

Conditions at: KRSW observed 22 July 2017  19:53 UTC
Temperature: 26.1°C (79°F)
Dewpoint: 23.9°C (75°F) [RH = 88%]
Pressure (altimeter): 30.06 inches Hg (1018.0 mb)
[Sea-level pressure: 1017.6 mb]
Winds: from the ESE (110 degrees) at 3 MPH (3 knots; 1.6 m/s)
Visibility: 10 or more miles (16+ km)
Ceiling: at least 12,000 feet AGL
Clouds: sky clear below 12,000 feet AGL
Present Weather: no significant weather observed at this time
KRSW 221953Z 11003KT 10SM CLR 26/24 A3006 RMK AO2 RAE21 SLP176 P0000 T02610239

Conditions at: KRSW observed 22 July 2017  18:53 UTC
Temperature: 25.0°C (77°F)
Dewpoint: 23.3°C (74°F) [RH = 90%]
Pressure (altimeter): 30.07 inches Hg (1018.4 mb)
[Sea-level pressure: 1018.1 mb]
Winds: calm
Visibility: 10 or more miles (16+ km)
Ceiling: 12000 feet AGL
Clouds: few clouds at 7000 feet AGL
scattered clouds at 10000 feet AGL
broken clouds at 12000 feet AGL
Present Weather: -RA  (light rain)
KRSW 221853Z 00000KT 10SM -RA FEW070 SCT100 BKN120 25/23 A3007 RMK AO2 TSB01E16B18E49 PRESFR SLP181 P0004 T02500233

Conditions at: KRSW observed 22 July 2017  18:06 UTC
Temperature: 24.4°C (76°F)
Dewpoint: 23.3°C (74°F) [RH = 94%]
Pressure (altimeter): 30.10 inches Hg (1019.4 mb)
Winds: from the ESE (110 degrees) at 3 MPH (3 knots; 1.6 m/s)
Visibility: 8 miles (13 km)
Ceiling: 11000 feet AGL
Clouds: broken clouds at 11000 feet AGL
Present Weather: -TSRA  (light rain associated with thunderstorm(s))
KRSW 221806Z 11003KT 8SM -TSRA BKN110 24/23 A3010 RMK AO2 LTG DSNT NE TSB01 P0002 T02440233

Conditions at: KRSW observed 22 July 2017  17:53 UTC
Temperature: 24.4°C (76°F)
Dewpoint: 23.3°C (74°F) [RH = 94%]
Pressure (altimeter): 30.11 inches Hg (1019.7 mb)
[Sea-level pressure: 1019.2 mb]
Winds: calm
Visibility: 6 miles (10 km)
Ceiling: 11000 feet AGL
Clouds: broken clouds at 11000 feet AGL
Present Weather: VCTS RA BR  (thunderstorm in vicinity, rain, mist)
KRSW 221753Z 00000KT 6SM VCTS RA BR BKN110 24/23 A3011 RMK AO2 LTG DSNT ALQDS TSE04B06E18B23E38 SLP192 P0004 60086 T02440233 10317 20233 50000

Conditions at: KRSW observed 22 July 2017  17:44 UTC
Temperature: 24.4°C (76°F)
Dewpoint: 23.3°C (74°F) [RH = 94%]
Pressure (altimeter): 30.11 inches Hg (1019.7 mb)
Winds: calm
Visibility: 7 miles (11 km)
Ceiling: at least 12,000 feet AGL
Clouds: scattered clouds at 11000 feet AGL
Present Weather: VCTS -RA  (thunderstorm in vicinity, light rain)
KRSW 221744Z 00000KT 7SM VCTS -RA SCT110 24/23 A3011 RMK AO2 LTG DSNT ALQDS TSE04B06E18B23E38 P0002 T02440233

Conditions at: KRSW observed 22 July 2017  16:53 UTC
Temperature: 23.3°C (74°F)
Dewpoint: 22.2°C (72°F) [RH = 94%]
Pressure (altimeter): 30.14 inches Hg (1020.7 mb)
[Sea-level pressure: 1020.4 mb]
Winds: from the S (170 degrees) at 3 MPH (3 knots; 1.6 m/s)
Visibility: 10 or more miles (16+ km)
Ceiling: 11000 feet AGL
Clouds: scattered clouds at 3900 feet AGL
broken clouds at 11000 feet AGL
Present Weather: -TSRA  (light rain associated with thunderstorm(s))
KRSW 221653Z 17003KT 10SM -TSRA SCT039 BKN110 23/22 A3014 RMK AO2 WSHFT 1547 LTG DSNT ALQDS SLP204 P0032 T02330222

Conditions at: KRSW observed 22 July 2017  16:10 UTC
Temperature: 23.9°C (75°F)
Dewpoint: 22.8°C (73°F) [RH = 94%]
Pressure (altimeter): 30.12 inches Hg (1020.1 mb)
Winds: from the NNE (30 degrees) at 7 MPH (6 knots; 3.1 m/s)
Visibility: 4 miles (6 km)
Ceiling: 3000 feet AGL
Clouds: broken clouds at 3000 feet AGL
broken clouds at 4100 feet AGL
overcast cloud deck at 9000 feet AGL
Present Weather: +TSRA BR  (heavy rain associated with thunderstorm(s), mist)
KRSW 221610Z 03006KT 4SM +TSRA BR BKN030 BKN041 OVC090 24/23 A3012 RMK AO2 WSHFT 1547 LTG DSNT ALQDS P0026 T02390228

Conditions at: KRSW observed 22 July 2017  16:05 UTC
Temperature: 23.3°C (74°F)
Dewpoint: 22.8°C (73°F) [RH = 97%]
Pressure (altimeter): 30.13 inches Hg (1020.4 mb)
Winds: from the N (360 degrees) at 9 MPH (8 knots; 4.2 m/s)
gusting to 21 MPH (18 knots; 9.4 m/s)
Visibility: 1.00 miles (1.61 km)
Ceiling: 2600 feet AGL
Clouds: broken clouds at 2600 feet AGL
broken clouds at 3900 feet AGL
overcast cloud deck at 7000 feet AGL
Present Weather: +TSRA BR  (heavy rain associated with thunderstorm(s), mist)
KRSW 221605Z 36008G18KT 1SM +TSRA BR BKN026 BKN039 OVC070 23/23 A3013 RMK AO2 WSHFT 1547 LTG DSNT ALQDS P0023 T02330228

Conditions at: KRSW observed 22 July 2017  15:53 UTC
Temperature: 23.9°C (75°F)
Dewpoint: 22.8°C (73°F) [RH = 94%]
Pressure (altimeter): 30.14 inches Hg (1020.7 mb)
[Sea-level pressure: 1020.3 mb]
Winds: from the NNW (330 degrees) at 13 MPH (11 knots; 5.7 m/s)
Visibility: 0.50 miles (0.80 km)
Ceiling: 2100 feet AGL
Clouds: scattered clouds at 1300 feet AGL
broken clouds at 2100 feet AGL
overcast cloud deck at 3800 feet AGL
Present Weather: +TSRA FG  (heavy rain associated with thunderstorm(s), fog)
KRSW 221553Z 33011KT 1/2SM +TSRA FG SCT013 BKN021 OVC038 24/23 A3014 RMK AO2 LTG DSNT ALQDS RAB15 TSB27 PRESRR SLP203 P0050 T02390228

Conditions at: KRSW observed 22 July 2017  15:40 UTC
Temperature: 25.0°C (77°F)
Dewpoint: 22.8°C (73°F) [RH = 88%]
Pressure (altimeter): 30.11 inches Hg (1019.7 mb)
Winds: from the WNW (300 degrees) at 15 MPH (13 knots; 6.8 m/s)
gusting to 21 MPH (18 knots; 9.4 m/s)
Visibility: 0.75 miles (1.21 km)
Ceiling: 3300 feet AGL
Clouds: few clouds at 2600 feet AGL
broken clouds at 3300 feet AGL
overcast cloud deck at 5500 feet AGL
Present Weather: +TSRA BR  (heavy rain associated with thunderstorm(s), mist)
KRSW 221540Z 30013G18KT 3/4SM +TSRA BR FEW026 BKN033 OVC055 25/23 A3011 RMK AO2 LTG DSNT ALQDS RAB15 TSB27 P0010 T02500228

Conditions at: KRSW observed 22 July 2017  15:27 UTC
Temperature: 29.4°C (85°F)
Dewpoint: 23.9°C (75°F) [RH = 72%]
Pressure (altimeter): 30.10 inches Hg (1019.4 mb)
Winds: from the WNW (300 degrees) at 10 MPH (9 knots; 4.7 m/s)
Visibility: 7 miles (11 km)
Ceiling: 3400 feet AGL
Clouds: broken clouds at 3400 feet AGL
broken clouds at 4900 feet AGL
overcast cloud deck at 8000 feet AGL
Present Weather: TSRA  (rain associated with thunderstorm(s))
KRSW 221527Z 30009KT 7SM TSRA BKN034 BKN049 OVC080 29/24 A3010 RMK AO2 LTG DSNT ALQDS RAB15 TSB27 P0001 T02940239

Conditions at: KRSW observed 22 July 2017  14:53 UTC
Temperature: 31.1°C (88°F)
Dewpoint: 23.9°C (75°F) [RH = 66%]
Pressure (altimeter): 30.11 inches Hg (1019.7 mb)
[Sea-level pressure: 1019.2 mb]
Winds: variable direction winds at 6 MPH (5 knots; 2.6 m/s)
Visibility: 10 or more miles (16+ km)
Ceiling: at least 12,000 feet AGL
Clouds: few clouds at 3000 feet AGL
scattered clouds at 6000 feet AGL
Present Weather: no significant weather observed at this time
KRSW 221453Z VRB05KT 10SM FEW030 SCT060 31/24 A3011 RMK AO2 LTG DSNT S-W SLP192 T03110239 51012

Conditions at: KRSW observed 22 July 2017  13:53 UTC
Temperature: 28.9°C (84°F)
Dewpoint: 24.4°C (76°F) [RH = 77%]
Pressure (altimeter): 30.09 inches Hg (1019.0 mb)
[Sea-level pressure: 1018.8 mb]
Winds: from the SSE (150 degrees) at 5 MPH (4 knots; 2.1 m/s)
Visibility: 10 or more miles (16+ km)
Ceiling: at least 12,000 feet AGL
Clouds: sky clear below 12,000 feet AGL
Present Weather: no significant weather observed at this time
KRSW 221353Z 15004KT 10SM CLR 29/24 A3009 RMK AO2 LTG DSNT W SLP188 T02890244

Conditions at: KRSW observed 22 July 2017  12:53 UTC
Temperature: 26.7°C (80°F)
Dewpoint: 23.9°C (75°F) [RH = 85%]
Pressure (altimeter): 30.09 inches Hg (1019.0 mb)
[Sea-level pressure: 1018.5 mb]
Winds: from the SSE (150 degrees) at 6 MPH (5 knots; 2.6 m/s)
Visibility: 10 or more miles (16+ km)
Ceiling: at least 12,000 feet AGL
Clouds: sky clear below 12,000 feet AGL
Present Weather: no significant weather observed at this time
KRSW 221253Z 15005KT 10SM CLR 27/24 A3009 RMK AO2 SLP185 T02670239

Conditions at: KRSW observed 22 July 2017  11:53 UTC
Temperature: 26.1°C (79°F)
Dewpoint: 23.3°C (74°F) [RH = 85%]
Pressure (altimeter): 30.07 inches Hg (1018.4 mb)
[Sea-level pressure: 1018.1 mb]
Winds: from the S (190 degrees) at 5 MPH (4 knots; 2.1 m/s)
Visibility: 10 or more miles (16+ km)
Ceiling: at least 12,000 feet AGL
Clouds: sky clear below 12,000 feet AGL
Present Weather: no significant weather observed at this time
KRSW 221153Z 19004KT 10SM CLR 26/23 A3007 RMK AO2 SLP181 70025 T02610233 10261 20244 51017

Conditions at: KRSW observed 22 July 2017  10:53 UTC
Temperature: 25.0°C (77°F)
Dewpoint: 23.3°C (74°F) [RH = 90%]
Pressure (altimeter): 30.06 inches Hg (1018.0 mb)
[Sea-level pressure: 1017.5 mb]
Winds: from the SE (140 degrees) at 5 MPH (4 knots; 2.1 m/s)
Visibility: 10 or more miles (16+ km)
Ceiling: at least 12,000 feet AGL
Clouds: sky clear below 12,000 feet AGL
Present Weather: no significant weather observed at this time
KRSW 221053Z 14004KT 10SM CLR 25/23 A3006 RMK AO2 LTG DSNT W SLP175 T02500233

Conditions at: KRSW observed 22 July 2017  09:53 UTC
Temperature: 24.4°C (76°F)
Dewpoint: 23.3°C (74°F) [RH = 94%]
Pressure (altimeter): 30.04 inches Hg (1017.4 mb)
[Sea-level pressure: 1017.1 mb]
Winds: from the SE (140 degrees) at 5 MPH (4 knots; 2.1 m/s)
Visibility: 10 or more miles (16+ km)
Ceiling: at least 12,000 feet AGL
Clouds: sky clear below 12,000 feet AGL
Present Weather: no significant weather observed at this time
KRSW 220953Z 14004KT 10SM CLR 24/23 A3004 RMK AO2 LTG DSNT SW SLP171 T02440233

Conditions at: KRSW observed 22 July 2017  08:53 UTC
Temperature: 24.4°C (76°F)
Dewpoint: 23.3°C (74°F) [RH = 94%]
Pressure (altimeter): 30.02 inches Hg (1016.7 mb)
[Sea-level pressure: 1016.4 mb]
Winds: from the SE (140 degrees) at 3 MPH (3 knots; 1.6 m/s)
Visibility: 10 or more miles (16+ km)
Ceiling: at least 12,000 feet AGL
Clouds: sky clear below 12,000 feet AGL
Present Weather: no significant weather observed at this time
KRSW 220853Z 14003KT 10SM CLR 24/23 A3002 RMK AO2 LTG DSNT SW SLP164 T02440233 56013